^^
Meteo Knjazevac Station Historical Data
Daily Summary for February 14, 2021 Units:  Both    English   Metric
Daily Weekly Monthly Yearly Custom
  High: Low: Average:
Temperature: 33.8 °F /  1 °C 26.4 °F /  -3.1 °C 31.3 °F /  -0.4 °C
Dew Point: 30 °F /  -1.1 °C 25.2 °F /  -3.8 °C 28.5 °F /  -1.9 °C
Humidity: 95% 81% 89%
Wind Speed: 9mph /  14.5km/h - 3.9mph /  6.3km/h
Wind Gust: 19mph /  30.6km/h - -
Wind- - SW
Pressure: 29.98 in /  1015.1 hPa 29.82 in /  1009.7 hPa -
Precipitation: 0.00 in /  0 mm    
Historical Graphs
 
 
Tabular Data for February 14, 2021
Time Temperature Dew Point Pressure Wind Wind Speed Wind Gust Humidity Rainfall Rate (Hourly) solar Conditions
00:00 31.8 °F /  -0.1 °C 29.2 °F /  -1.6 °C 29.98in /  1015.1hPa WSW 7mph /  11.3km/h 11mph /  17.7km/h 90% 0.00in /  0mm 0 W/m2
00:10 31.8 °F /  -0.1 °C 29.2 °F /  -1.6 °C 29.98in /  1015.1hPa WSW 6mph /  9.7km/h 11mph /  17.7km/h 90% 0.00in /  0mm 0 W/m2
00:30 31.8 °F /  -0.1 °C 29.2 °F /  -1.6 °C 29.98in /  1015.1hPa WSW 6mph /  9.7km/h 14mph /  22.5km/h 90% 0.00in /  0mm 0 W/m2
00:40 31.8 °F /  -0.1 °C 29.2 °F /  -1.6 °C 29.98in /  1015.1hPa WSW 9mph /  14.5km/h 13mph /  20.9km/h 90% 0.00in /  0mm 0 W/m2
00:50 31.8 °F /  -0.1 °C 29.2 °F /  -1.6 °C 29.98in /  1015.1hPa WSW 6mph /  9.7km/h 14mph /  22.5km/h 90% 0.00in /  0mm 0 W/m2
01:00 31.6 °F /  -0.2 °C 29 °F /  -1.7 °C 29.98in /  1015.1hPa WSW 5mph /  8km/h 11mph /  17.7km/h 90% 0.00in /  0mm 0 W/m2
01:10 31.5 °F /  -0.3 °C 28.9 °F /  -1.7 °C 29.98in /  1015.1hPa WSW 8mph /  12.9km/h 12mph /  19.3km/h 90% 0.00in /  0mm 0 W/m2
01:20 31.6 °F /  -0.2 °C 28.8 °F /  -1.8 °C 29.98in /  1015.1hPa WSW 7mph /  11.3km/h 13mph /  20.9km/h 89% 0.00in /  0mm 0 W/m2
01:30 31.6 °F /  -0.2 °C 28.7 °F /  -1.8 °C 29.98in /  1015.1hPa WSW 8mph /  12.9km/h 11mph /  17.7km/h 89% 0.00in /  0mm 0 W/m2
01:40 31.6 °F /  -0.2 °C 28.7 °F /  -1.8 °C 29.98in /  1015.1hPa WSW 6mph /  9.7km/h 13mph /  20.9km/h 89% 0.00in /  0mm 0 W/m2
02:00 31.6 °F /  -0.2 °C 28.7 °F /  -1.8 °C 29.98in /  1015.1hPa WSW 6mph /  9.7km/h 12mph /  19.3km/h 89% 0.00in /  0mm 0 W/m2
02:10 31.5 °F /  -0.3 °C 28.6 °F /  -1.9 °C 29.98in /  1015.1hPa WSW 6mph /  9.7km/h 8mph /  12.9km/h 89% 0.00in /  0mm 0 W/m2
02:20 31.3 °F /  -0.4 °C 28.7 °F /  -1.8 °C 29.98in /  1015.1hPa WSW 6mph /  9.7km/h 9mph /  14.5km/h 90% 0.00in /  0mm 0 W/m2
02:30 30.9 °F /  -0.6 °C 28.3 °F /  -2.1 °C 29.98in /  1015.1hPa WSW 6mph /  9.7km/h 9mph /  14.5km/h 90% 0.00in /  0mm 0 W/m2
02:40 30.7 °F /  -0.7 °C 28.2 °F /  -2.1 °C 29.98in /  1015.1hPa WSW 6mph /  9.7km/h 9mph /  14.5km/h 90% 0.00in /  0mm 0 W/m2
02:50 30.7 °F /  -0.7 °C 28.4 °F /  -2 °C 29.97in /  1014.8hPa WSW 9mph /  14.5km/h 13mph /  20.9km/h 91% 0.00in /  0mm 0 W/m2
03:00 30.7 °F /  -0.7 °C 28.4 °F /  -2 °C 29.97in /  1014.8hPa WSW 6mph /  9.7km/h 12mph /  19.3km/h 91% 0.00in /  0mm 0 W/m2
03:10 30.6 °F /  -0.8 °C 28.2 °F /  -2.1 °C 29.97in /  1014.8hPa WSW 2mph /  3.2km/h 7mph /  11.3km/h 91% 0.00in /  0mm 0 W/m2
03:20 30.6 °F /  -0.8 °C 28.2 °F /  -2.1 °C 29.97in /  1014.8hPa WSW 3mph /  4.8km/h 7mph /  11.3km/h 91% 0.00in /  0mm 0 W/m2
03:30 30.6 °F /  -0.8 °C 28.2 °F /  -2.1 °C 29.97in /  1014.8hPa WSW 7mph /  11.3km/h 8mph /  12.9km/h 91% 0.00in /  0mm 0 W/m2
03:40 30.6 °F /  -0.8 °C 28.2 °F /  -2.1 °C 29.96in /  1014.4hPa WSW 3mph /  4.8km/h 8mph /  12.9km/h 91% 0.00in /  0mm 0 W/m2
03:50 30.6 °F /  -0.8 °C 28.2 °F /  -2.1 °C 29.96in /  1014.4hPa WSW 2mph /  3.2km/h 6mph /  9.7km/h 91% 0.00in /  0mm 0 W/m2
04:00 30.6 °F /  -0.8 °C 28.2 °F /  -2.1 °C 29.96in /  1014.4hPa West 2mph /  3.2km/h 6mph /  9.7km/h 91% 0.00in /  0mm 0 W/m2
04:10 30.6 °F /  -0.8 °C 28.2 °F /  -2.1 °C 29.96in /  1014.4hPa WSW 5mph /  8km/h 6mph /  9.7km/h 91% 0.00in /  0mm 0 W/m2
04:20 30.6 °F /  -0.8 °C 28.2 °F /  -2.1 °C 29.96in /  1014.4hPa WSW 2mph /  3.2km/h 6mph /  9.7km/h 91% 0.00in /  0mm 0 W/m2
04:30 30.4 °F /  -0.9 °C 28.1 °F /  -2.2 °C 29.95in /  1014.1hPa SW 5mph /  8km/h 8mph /  12.9km/h 91% 0.00in /  0mm 0 W/m2
04:40 30.4 °F /  -0.9 °C 28.1 °F /  -2.2 °C 29.95in /  1014.1hPa WSW 5mph /  8km/h 8mph /  12.9km/h 91% 0.00in /  0mm 0 W/m2
04:50 30.4 °F /  -0.9 °C 28.1 °F /  -2.2 °C 29.95in /  1014.1hPa WSW 5mph /  8km/h 8mph /  12.9km/h 91% 0.00in /  0mm 0 W/m2
05:00 30.3 °F /  -0.9 °C 28 °F /  -2.2 °C 29.94in /  1013.8hPa SW 5mph /  8km/h 8mph /  12.9km/h 91% 0.00in /  0mm 0 W/m2
05:10 30.2 °F /  -1 °C 27.9 °F /  -2.3 °C 29.94in /  1013.8hPa WSW 3mph /  4.8km/h 8mph /  12.9km/h 91% 0.00in /  0mm 0 W/m2
05:20 30 °F /  -1.1 °C 27.7 °F /  -2.4 °C 29.94in /  1013.8hPa WSW 3mph /  4.8km/h 8mph /  12.9km/h 91% 0.00in /  0mm 0 W/m2
05:30 29.8 °F /  -1.2 °C 27.5 °F /  -2.5 °C 29.94in /  1013.8hPa WSW 1mph /  1.6km/h 7mph /  11.3km/h 91% 0.00in /  0mm 0 W/m2
05:40 29.7 °F /  -1.3 °C 27.4 °F /  -2.6 °C 29.93in /  1013.4hPa West 1mph /  1.6km/h 6mph /  9.7km/h 91% 0.00in /  0mm 0 W/m2
05:50 29.7 °F /  -1.3 °C 27.4 °F /  -2.6 °C 29.93in /  1013.4hPa Calm   3mph /  4.8km/h 91% 0.00in /  0mm 0 W/m2
06:00 29.5 °F /  -1.4 °C 27.7 °F /  -2.4 °C 29.93in /  1013.4hPa NW 1mph /  1.6km/h 2mph /  3.2km/h 93% 0.00in /  0mm 0 W/m2
06:10 29.1 °F /  -1.6 °C 27.3 °F /  -2.6 °C 29.92in /  1013.1hPa West 1mph /  1.6km/h 2mph /  3.2km/h 93% 0.00in /  0mm 0 W/m2
06:20 28.8 °F /  -1.8 °C 27 °F /  -2.8 °C 29.92in /  1013.1hPa Calm   3mph /  4.8km/h 93% 0.00in /  0mm 0 W/m2
06:30 28.4 °F /  -2 °C 26.9 °F /  -2.8 °C 29.92in /  1013.1hPa WSW 2mph /  3.2km/h 5mph /  8km/h 94% 0.00in /  0mm 0 W/m2
06:40 28.2 °F /  -2.1 °C 26.7 °F /  -2.9 °C 29.92in /  1013.1hPa SW 1mph /  1.6km/h 3mph /  4.8km/h 94% 0.00in /  0mm 0 W/m2
06:50 28 °F /  -2.2 °C 26.5 °F /  -3.1 °C 29.92in /  1013.1hPa SW 3mph /  4.8km/h 7mph /  11.3km/h 94% 0.00in /  0mm 0 W/m2
07:00 28 °F /  -2.2 °C 26.5 °F /  -3.1 °C 29.92in /  1013.1hPa SW 2mph /  3.2km/h 4mph /  6.4km/h 94% 0.00in /  0mm 0 W/m2
07:10 27.9 °F /  -2.3 °C 26.4 °F /  -3.1 °C 29.91in /  1012.8hPa WSW 1mph /  1.6km/h 3mph /  4.8km/h 94% 0.00in /  0mm 7 W/m2
07:20 27.5 °F /  -2.5 °C 26 °F /  -3.3 °C 29.91in /  1012.8hPa WSW 1mph /  1.6km/h 2mph /  3.2km/h 94% 0.00in /  0mm 9 W/m2
07:30 27.1 °F /  -2.7 °C 25.9 °F /  -3.4 °C 29.91in /  1012.8hPa SW 1mph /  1.6km/h 2mph /  3.2km/h 95% 0.00in /  0mm 24 W/m2
07:40 26.7 °F /  -2.9 °C 25.5 °F /  -3.6 °C 29.91in /  1012.8hPa Calm   3mph /  4.8km/h 95% 0.00in /  0mm 33 W/m2
07:50 26.4 °F /  -3.1 °C 25.2 °F /  -3.8 °C 29.90in /  1012.4hPa SW 1mph /  1.6km/h 3mph /  4.8km/h 95% 0.00in /  0mm 44 W/m2
08:00 26.5 °F /  -3.1 °C 25.3 °F /  -3.7 °C 29.90in /  1012.4hPa West 1mph /  1.6km/h 3mph /  4.8km/h 95% 0.00in /  0mm 39 W/m2
08:10 26.8 °F /  -2.9 °C 25.5 °F /  -3.6 °C 29.90in /  1012.4hPa Calm   2mph /  3.2km/h 95% 0.00in /  0mm 98 W/m2
08:20 27.6 °F /  -2.4 °C 26.3 °F /  -3.2 °C 29.89in /  1012.1hPa ENE 3mph /  4.8km/h 9mph /  14.5km/h 95% 0.00in /  0mm 119 W/m2
08:30 28.6 °F /  -1.9 °C 27.1 °F /  -2.7 °C 29.86in /  1011.1hPa SSE 2mph /  3.2km/h 14mph /  22.5km/h 94% 0.00in /  0mm 139 W/m2
08:40 29.7 °F /  -1.3 °C 27.9 °F /  -2.3 °C 29.85in /  1010.7hPa SSE 5mph /  8km/h 14mph /  22.5km/h 93% 0.00in /  0mm 159 W/m2
08:50 30.4 °F /  -0.9 °C 28.1 °F /  -2.2 °C 29.85in /  1010.7hPa SSE 6mph /  9.7km/h 11mph /  17.7km/h 91% 0.00in /  0mm 177 W/m2
09:00 30.6 °F /  -0.8 °C 28 °F /  -2.2 °C 29.85in /  1010.7hPa South 1mph /  1.6km/h 10mph /  16.1km/h 90% 0.00in /  0mm 104 W/m2
09:10 30.7 °F /  -0.7 °C 27.9 °F /  -2.3 °C 29.85in /  1010.7hPa SSE 1mph /  1.6km/h 5mph /  8km/h 89% 0.00in /  0mm 81 W/m2
09:20 30.9 °F /  -0.6 °C 28.1 °F /  -2.2 °C 29.85in /  1010.7hPa WSW 5mph /  8km/h 7mph /  11.3km/h 89% 0.00in /  0mm 101 W/m2
09:30 31.3 °F /  -0.4 °C 28.1 °F /  -2.2 °C 29.84in /  1010.4hPa SW 2mph /  3.2km/h 7mph /  11.3km/h 88% 0.00in /  0mm 114 W/m2
09:40 31.5 °F /  -0.3 °C 27.8 °F /  -2.3 °C 29.84in /  1010.4hPa SSW 3mph /  4.8km/h 8mph /  12.9km/h 86% 0.00in /  0mm 125 W/m2
09:50 31.7 °F /  -0.2 °C 28.6 °F /  -1.9 °C 29.83in /  1010hPa SSW 3mph /  4.8km/h 6mph /  9.7km/h 88% 0.00in /  0mm 109 W/m2
10:00 31.8 °F /  -0.1 °C 28.1 °F /  -2.2 °C 29.83in /  1010hPa SW 5mph /  8km/h 9mph /  14.5km/h 86% 0.00in /  0mm 110 W/m2
10:10 32.1 °F /  0.1 °C 28.3 °F /  -2.1 °C 29.83in /  1010hPa SW 5mph /  8km/h 9mph /  14.5km/h 86% 0.00in /  0mm 109 W/m2
10:20 32.2 °F /  0.1 °C 28.2 °F /  -2.1 °C 29.83in /  1010hPa SW 6mph /  9.7km/h 12mph /  19.3km/h 85% 0.00in /  0mm 149 W/m2
10:30 32.4 °F /  0.2 °C 28.1 °F /  -2.2 °C 29.84in /  1010.4hPa SW 7mph /  11.3km/h 13mph /  20.9km/h 84% 0.00in /  0mm 133 W/m2
10:40 32.6 °F /  0.3 °C 28 °F /  -2.2 °C 29.84in /  1010.4hPa SW 5mph /  8km/h 13mph /  20.9km/h 83% 0.00in /  0mm 126 W/m2
10:50 32.9 °F /  0.5 °C 28.3 °F /  -2.1 °C 29.83in /  1010hPa SSW 5mph /  8km/h 14mph /  22.5km/h 83% 0.00in /  0mm 155 W/m2
11:00 33.1 °F /  0.6 °C 28.5 °F /  -1.9 °C 29.84in /  1010.4hPa South 3mph /  4.8km/h 12mph /  19.3km/h 83% 0.00in /  0mm 124 W/m2
11:10 33.1 °F /  0.6 °C 28.5 °F /  -1.9 °C 29.82in /  1009.7hPa SSE 3mph /  4.8km/h 7mph /  11.3km/h 83% 0.00in /  0mm 129 W/m2
11:20 33.3 °F /  0.7 °C 28.9 °F /  -1.7 °C 29.82in /  1009.7hPa SE 5mph /  8km/h 9mph /  14.5km/h 84% 0.00in /  0mm 139 W/m2
11:30 33.4 °F /  0.8 °C 29.1 °F /  -1.6 °C 29.82in /  1009.7hPa ESE 3mph /  4.8km/h 12mph /  19.3km/h 84% 0.00in /  0mm 123 W/m2
11:40 33.4 °F /  0.8 °C 29.1 °F /  -1.6 °C 29.82in /  1009.7hPa SSW 3mph /  4.8km/h 8mph /  12.9km/h 84% 0.00in /  0mm 113 W/m2
11:50 33.4 °F /  0.8 °C 28.8 °F /  -1.8 °C 29.82in /  1009.7hPa South 3mph /  4.8km/h 7mph /  11.3km/h 83% 0.00in /  0mm 110 W/m2
12:00 33.4 °F /  0.8 °C 29.1 °F /  -1.6 °C 29.83in /  1010hPa WSW 3mph /  4.8km/h 7mph /  11.3km/h 84% 0.00in /  0mm 100 W/m2
12:10 33.6 °F /  0.9 °C 28.7 °F /  -1.8 °C 29.82in /  1009.7hPa SW 1mph /  1.6km/h 9mph /  14.5km/h 82% 0.00in /  0mm 95 W/m2
12:20 33.6 °F /  0.9 °C 28.4 °F /  -2 °C 29.82in /  1009.7hPa SSE 5mph /  8km/h 8mph /  12.9km/h 81% 0.00in /  0mm 107 W/m2
12:30 33.6 °F /  0.9 °C 28.4 °F /  -2 °C 29.82in /  1009.7hPa South 2mph /  3.2km/h 5mph /  8km/h 81% 0.00in /  0mm 112 W/m2
12:40 33.8 °F /  1 °C 29.2 °F /  -1.6 °C 29.83in /  1010hPa SSW 3mph /  4.8km/h 7mph /  11.3km/h 83% 0.00in /  0mm 112 W/m2
12:50 33.8 °F /  1 °C 29.2 °F /  -1.6 °C 29.83in /  1010hPa SSW 5mph /  8km/h 12mph /  19.3km/h 83% 0.00in /  0mm 94 W/m2
13:00 33.6 °F /  0.9 °C 29.3 °F /  -1.5 °C 29.83in /  1010hPa SW 7mph /  11.3km/h 17mph /  27.4km/h 84% 0.00in /  0mm 88 W/m2
13:10 33.1 °F /  0.6 °C 29.3 °F /  -1.5 °C 29.83in /  1010hPa SW 7mph /  11.3km/h 17mph /  27.4km/h 86% 0.00in /  0mm 100 W/m2
13:20 32.7 °F /  0.4 °C 29.6 °F /  -1.3 °C 29.83in /  1010hPa SW 6mph /  9.7km/h 13mph /  20.9km/h 88% 0.00in /  0mm 96 W/m2
13:30 32.5 °F /  0.3 °C 29.7 °F /  -1.3 °C 29.83in /  1010hPa SW 7mph /  11.3km/h 14mph /  22.5km/h 89% 0.00in /  0mm 93 W/m2
13:40 32.5 °F /  0.3 °C 29.7 °F /  -1.3 °C 29.82in /  1009.7hPa SSW 3mph /  4.8km/h 9mph /  14.5km/h 89% 0.00in /  0mm 109 W/m2
13:50 32.7 °F /  0.4 °C 29.8 °F /  -1.2 °C 29.83in /  1010hPa South 5mph /  8km/h 12mph /  19.3km/h 89% 0.00in /  0mm 114 W/m2
14:00 32.6 °F /  0.3 °C 29.7 °F /  -1.3 °C 29.82in /  1009.7hPa SSW 3mph /  4.8km/h 12mph /  19.3km/h 89% 0.00in /  0mm 83 W/m2
14:10 32.7 °F /  0.4 °C 29.8 °F /  -1.2 °C 29.83in /  1010hPa SW 3mph /  4.8km/h 7mph /  11.3km/h 89% 0.00in /  0mm 74 W/m2
14:20 32.7 °F /  0.4 °C 29.8 °F /  -1.2 °C 29.83in /  1010hPa SSW 3mph /  4.8km/h 8mph /  12.9km/h 89% 0.00in /  0mm 61 W/m2
14:30 32.7 °F /  0.4 °C 29.5 °F /  -1.4 °C 29.83in /  1010hPa SSW 5mph /  8km/h 10mph /  16.1km/h 88% 0.00in /  0mm 50 W/m2
14:40 32.5 °F /  0.3 °C 29.7 °F /  -1.3 °C 29.83in /  1010hPa South 5mph /  8km/h 13mph /  20.9km/h 89% 0.00in /  0mm 45 W/m2
14:50 32.5 °F /  0.3 °C 29.7 °F /  -1.3 °C 29.82in /  1009.7hPa SSW 6mph /  9.7km/h 13mph /  20.9km/h 89% 0.00in /  0mm 38 W/m2
15:00 32.5 °F /  0.3 °C 29.7 °F /  -1.3 °C 29.83in /  1010hPa SW 5mph /  8km/h 14mph /  22.5km/h 89% 0.00in /  0mm 35 W/m2
15:10 32.4 °F /  0.2 °C 29.5 °F /  -1.4 °C 29.83in /  1010hPa SSW 8mph /  12.9km/h 15mph /  24.1km/h 89% 0.00in /  0mm 39 W/m2
15:20 32.4 °F /  0.2 °C 29.5 °F /  -1.4 °C 29.84in /  1010.4hPa SW 6mph /  9.7km/h 15mph /  24.1km/h 89% 0.00in /  0mm 27 W/m2
15:30 32.4 °F /  0.2 °C 29.5 °F /  -1.4 °C 29.84in /  1010.4hPa SW 8mph /  12.9km/h 13mph /  20.9km/h 89% 0.00in /  0mm 14 W/m2
15:40 32.4 °F /  0.2 °C 29.8 °F /  -1.2 °C 29.84in /  1010.4hPa SW 6mph /  9.7km/h 12mph /  19.3km/h 90% 0.00in /  0mm 9 W/m2
15:50 32.4 °F /  0.2 °C 29.8 °F /  -1.2 °C 29.84in /  1010.4hPa SW 6mph /  9.7km/h 12mph /  19.3km/h 90% 0.00in /  0mm 7 W/m2
16:00 32.2 °F /  0.1 °C 29.6 °F /  -1.3 °C 29.85in /  1010.7hPa WSW 8mph /  12.9km/h 13mph /  20.9km/h 90% 0.00in /  0mm 3 W/m2
16:10 32.2 °F /  0.1 °C 29.6 °F /  -1.3 °C 29.85in /  1010.7hPa SW 6mph /  9.7km/h 15mph /  24.1km/h 90% 0.00in /  0mm 2 W/m2
16:20 32.2 °F /  0.1 °C 29.6 °F /  -1.3 °C 29.85in /  1010.7hPa SW 6mph /  9.7km/h 12mph /  19.3km/h 90% 0.00in /  0mm 0 W/m2
16:30 32.2 °F /  0.1 °C 29.6 °F /  -1.3 °C 29.86in /  1011.1hPa SW 5mph /  8km/h 8mph /  12.9km/h 90% 0.00in /  0mm 0 W/m2
16:40 32.2 °F /  0.1 °C 29.6 °F /  -1.3 °C 29.86in /  1011.1hPa SW 5mph /  8km/h 9mph /  14.5km/h 90% 0.00in /  0mm 0 W/m2
16:50 32.2 °F /  0.1 °C 29.6 °F /  -1.3 °C 29.86in /  1011.1hPa SW 3mph /  4.8km/h 9mph /  14.5km/h 90% 0.00in /  0mm 0 W/m2
17:00 32 °F /  0 °C 29.7 °F /  -1.3 °C 29.86in /  1011.1hPa SW 6mph /  9.7km/h 9mph /  14.5km/h 91% 0.00in /  0mm 0 W/m2
17:10 32 °F /  0 °C 29.7 °F /  -1.3 °C 29.86in /  1011.1hPa SW 1mph /  1.6km/h 7mph /  11.3km/h 91% 0.00in /  0mm 0 W/m2
17:20 32 °F /  0 °C 29.7 °F /  -1.3 °C 29.86in /  1011.1hPa North 3mph /  4.8km/h 6mph /  9.7km/h 91% 0.00in /  0mm 0 W/m2
17:30 31.9 °F /  -0.1 °C 29.6 °F /  -1.3 °C 29.86in /  1011.1hPa North 3mph /  4.8km/h 7mph /  11.3km/h 91% 0.00in /  0mm 0 W/m2
17:40 31.8 °F /  -0.1 °C 30 °F /  -1.1 °C 29.87in /  1011.4hPa Calm   5mph /  8km/h 93% 0.00in /  0mm 0 W/m2
17:50 31.8 °F /  -0.1 °C 30 °F /  -1.1 °C 29.88in /  1011.7hPa West 2mph /  3.2km/h 7mph /  11.3km/h 93% 0.00in /  0mm 0 W/m2
18:00 31.8 °F /  -0.1 °C 30 °F /  -1.1 °C 29.87in /  1011.4hPa West 2mph /  3.2km/h 11mph /  17.7km/h 93% 0.00in /  0mm 0 W/m2
18:10 32 °F /  0 °C 29.4 °F /  -1.4 °C 29.88in /  1011.7hPa West 6mph /  9.7km/h 13mph /  20.9km/h 90% 0.00in /  0mm 0 W/m2
18:20 32 °F /  0 °C 29.1 °F /  -1.6 °C 29.88in /  1011.7hPa WSW 7mph /  11.3km/h 19mph /  30.6km/h 89% 0.00in /  0mm 0 W/m2
18:30 32 °F /  0 °C 29.1 °F /  -1.6 °C 29.88in /  1011.7hPa WSW 6mph /  9.7km/h 15mph /  24.1km/h 89% 0.00in /  0mm 0 W/m2
18:40 32 °F /  0 °C 29.1 °F /  -1.6 °C 29.88in /  1011.7hPa West 3mph /  4.8km/h 12mph /  19.3km/h 89% 0.00in /  0mm 0 W/m2
18:50 31.8 °F /  -0.1 °C 28.9 °F /  -1.7 °C 29.88in /  1011.7hPa SW 3mph /  4.8km/h 8mph /  12.9km/h 89% 0.00in /  0mm 0 W/m2
19:00 31.6 °F /  -0.2 °C 28.8 °F /  -1.8 °C 29.88in /  1011.7hPa WSW 3mph /  4.8km/h 11mph /  17.7km/h 89% 0.00in /  0mm 0 W/m2
19:10 31.6 °F /  -0.2 °C 28.8 °F /  -1.8 °C 29.88in /  1011.7hPa SSE 3mph /  4.8km/h 8mph /  12.9km/h 89% 0.00in /  0mm 0 W/m2
19:20 31.6 °F /  -0.2 °C 28.8 °F /  -1.8 °C 29.88in /  1011.7hPa NNE 2mph /  3.2km/h 8mph /  12.9km/h 89% 0.00in /  0mm 0 W/m2
19:30 31.6 °F /  -0.2 °C 28.8 °F /  -1.8 °C 29.89in /  1012.1hPa ESE 2mph /  3.2km/h 7mph /  11.3km/h 89% 0.00in /  0mm 0 W/m2
19:40 31.8 °F /  -0.1 °C 28.9 °F /  -1.7 °C 29.89in /  1012.1hPa NNE 1mph /  1.6km/h 8mph /  12.9km/h 89% 0.00in /  0mm 0 W/m2
19:50 31.8 °F /  -0.1 °C 28.9 °F /  -1.7 °C 29.89in /  1012.1hPa SSE 1mph /  1.6km/h 12mph /  19.3km/h 89% 0.00in /  0mm 0 W/m2
20:00 31.8 °F /  -0.1 °C 28.7 °F /  -1.8 °C 29.89in /  1012.1hPa SSW 1mph /  1.6km/h 7mph /  11.3km/h 88% 0.00in /  0mm 0 W/m2
20:10 31.9 °F /  -0.1 °C 29 °F /  -1.7 °C 29.90in /  1012.4hPa NE 1mph /  1.6km/h 7mph /  11.3km/h 89% 0.00in /  0mm 0 W/m2
20:20 31.8 °F /  -0.1 °C 28.9 °F /  -1.7 °C 29.90in /  1012.4hPa NNE 2mph /  3.2km/h 7mph /  11.3km/h 89% 0.00in /  0mm 0 W/m2
20:30 31.8 °F /  -0.1 °C 28.9 °F /  -1.7 °C 29.91in /  1012.8hPa NNE 2mph /  3.2km/h 7mph /  11.3km/h 89% 0.00in /  0mm 0 W/m2
20:40 31.8 °F /  -0.1 °C 28.9 °F /  -1.7 °C 29.91in /  1012.8hPa NW 6mph /  9.7km/h 9mph /  14.5km/h 89% 0.00in /  0mm 0 W/m2
20:50 31.8 °F /  -0.1 °C 29.2 °F /  -1.6 °C 29.92in /  1013.1hPa West 1mph /  1.6km/h 12mph /  19.3km/h 90% 0.00in /  0mm 0 W/m2
21:00 31.8 °F /  -0.1 °C 29.2 °F /  -1.6 °C 29.92in /  1013.1hPa West 3mph /  4.8km/h 5mph /  8km/h 90% 0.00in /  0mm 0 W/m2
21:10 31.6 °F /  -0.2 °C 29 °F /  -1.7 °C 29.92in /  1013.1hPa Calm   6mph /  9.7km/h 90% 0.00in /  0mm 0 W/m2
21:20 31.6 °F /  -0.2 °C 29 °F /  -1.7 °C 29.93in /  1013.4hPa NW 2mph /  3.2km/h 5mph /  8km/h 90% 0.00in /  0mm 0 W/m2
21:30 31.6 °F /  -0.2 °C 29 °F /  -1.7 °C 29.93in /  1013.4hPa WSW 7mph /  11.3km/h 12mph /  19.3km/h 90% 0.00in /  0mm 0 W/m2
21:40 31.5 °F /  -0.3 °C 28.6 °F /  -1.9 °C 29.93in /  1013.4hPa WSW 7mph /  11.3km/h 13mph /  20.9km/h 89% 0.00in /  0mm 0 W/m2
21:50 31.1 °F /  -0.5 °C 28.5 °F /  -1.9 °C 29.93in /  1013.4hPa WSW 3mph /  4.8km/h 12mph /  19.3km/h 90% 0.00in /  0mm 0 W/m2
22:00 30.9 °F /  -0.6 °C 28.3 °F /  -2.1 °C 29.93in /  1013.4hPa WSW 2mph /  3.2km/h 9mph /  14.5km/h 90% 0.00in /  0mm 0 W/m2
22:10 30.9 °F /  -0.6 °C 28.3 °F /  -2.1 °C 29.94in /  1013.8hPa WSW 1mph /  1.6km/h 4mph /  6.4km/h 90% 0.00in /  0mm 0 W/m2
22:20 30.9 °F /  -0.6 °C 28.3 °F /  -2.1 °C 29.93in /  1013.4hPa SE 2mph /  3.2km/h 7mph /  11.3km/h 90% 0.00in /  0mm 0 W/m2
22:30 31.1 °F /  -0.5 °C 28.2 °F /  -2.1 °C 29.94in /  1013.8hPa South 2mph /  3.2km/h 8mph /  12.9km/h 89% 0.00in /  0mm 0 W/m2
22:40 31.3 °F /  -0.4 °C 28.1 °F /  -2.2 °C 29.94in /  1013.8hPa SSW 5mph /  8km/h 9mph /  14.5km/h 88% 0.00in /  0mm 0 W/m2
22:50 31.5 °F /  -0.3 °C 28.3 °F /  -2.1 °C 29.95in /  1014.1hPa SW 5mph /  8km/h 10mph /  16.1km/h 88% 0.00in /  0mm 0 W/m2
23:00 31.5 °F /  -0.3 °C 28.3 °F /  -2.1 °C 29.94in /  1013.8hPa WSW 7mph /  11.3km/h 12mph /  19.3km/h 88% 0.00in /  0mm 0 W/m2
23:10 31.3 °F /  -0.4 °C 28.4 °F /  -2 °C 29.95in /  1014.1hPa WSW 6mph /  9.7km/h 13mph /  20.9km/h 89% 0.00in /  0mm 0 W/m2
23:20 31.1 °F /  -0.5 °C 28.2 °F /  -2.1 °C 29.94in /  1013.8hPa WSW 5mph /  8km/h 14mph /  22.5km/h 89% 0.00in /  0mm 0 W/m2
23:30 31.1 °F /  -0.5 °C 28.5 °F /  -1.9 °C 29.95in /  1014.1hPa WNW 2mph /  3.2km/h 7mph /  11.3km/h 90% 0.00in /  0mm 0 W/m2
23:50 30.9 °F /  -0.6 °C 28.1 °F /  -2.2 °C 29.95in /  1014.1hPa North 2mph /  3.2km/h 6mph /  9.7km/h 89% 0.00in /  0mm 0 W/m2
Knjazevac, Serbia
Compliments of Weather Underground - 2 mb